sensor_id;sensor_type;location;lat;lon;timestamp;pressure;altitude;pressure_sealevel;temperature;humidity
55066;BME280;40964;42.114;24.220;2023-04-04T00:00:07;96480.50;;;8.44;100.00
55066;BME280;40964;42.114;24.220;2023-04-04T00:02:33;96480.19;;;8.41;100.00
55066;BME280;40964;42.114;24.220;2023-04-04T00:04:58;96476.91;;;8.45;100.00
55066;BME280;40964;42.114;24.220;2023-04-04T00:07:23;96470.78;;;8.57;100.00
55066;BME280;40964;42.114;24.220;2023-04-04T00:09:49;96466.22;;;8.64;100.00
55066;BME280;40964;42.114;24.220;2023-04-04T00:12:15;96472.78;;;8.66;100.00
55066;BME280;40964;42.114;24.220;2023-04-04T00:14:40;96477.91;;;8.73;100.00
55066;BME280;40964;42.114;24.220;2023-04-04T00:17:06;96463.81;;;8.79;100.00
55066;BME280;40964;42.114;24.220;2023-04-04T00:19:31;96459.06;;;8.76;100.00
55066;BME280;40964;42.114;24.220;2023-04-04T00:21:57;96450.31;;;8.70;100.00
55066;BME280;40964;42.114;24.220;2023-04-04T00:26:57;96451.72;;;8.61;100.00
55066;BME280;40964;42.114;24.220;2023-04-04T00:29:23;96457.38;;;8.70;100.00
55066;BME280;40964;42.114;24.220;2023-04-04T00:31:48;96462.72;;;8.75;100.00
55066;BME280;40964;42.114;24.220;2023-04-04T00:34:14;96458.25;;;8.75;100.00
55066;BME280;40964;42.114;24.220;2023-04-04T00:36:39;96451.50;;;8.79;100.00
55066;BME280;40964;42.114;24.220;2023-04-04T00:39:04;96443.25;;;8.88;100.00
55066;BME280;40964;42.114;24.220;2023-04-04T00:41:30;96455.09;;;8.90;100.00
55066;BME280;40964;42.114;24.220;2023-04-04T00:43:56;96446.19;;;8.91;100.00
55066;BME280;40964;42.114;24.220;2023-04-04T00:46:21;96446.19;;;8.91;100.00
55066;BME280;40964;42.114;24.220;2023-04-04T00:48:49;96440.47;;;8.94;100.00
55066;BME280;40964;42.114;24.220;2023-04-04T00:51:15;96445.56;;;9.01;100.00
55066;BME280;40964;42.114;24.220;2023-04-04T00:53:43;96446.66;;;9.05;100.00
55066;BME280;40964;42.114;24.220;2023-04-04T00:56:10;96443.00;;;9.06;100.00
55066;BME280;40964;42.114;24.220;2023-04-04T00:58:36;96430.69;;;9.06;100.00
55066;BME280;40964;42.114;24.220;2023-04-04T01:01:01;96440.38;;;9.06;100.00
55066;BME280;40964;42.114;24.220;2023-04-04T01:03:27;96450.63;;;9.07;100.00
55066;BME280;40964;42.114;24.220;2023-04-04T01:05:54;96448.25;;;9.06;100.00
55066;BME280;40964;42.114;24.220;2023-04-04T01:08:22;96438.88;;;8.93;100.00
55066;BME280;40964;42.114;24.220;2023-04-04T01:10:49;96437.84;;;8.94;100.00
55066;BME280;40964;42.114;24.220;2023-04-04T01:13:14;96427.28;;;8.89;100.00
55066;BME280;40964;42.114;24.220;2023-04-04T01:15:40;96424.59;;;8.84;100.00
55066;BME280;40964;42.114;24.220;2023-04-04T01:18:07;96423.00;;;8.83;100.00
55066;BME280;40964;42.114;24.220;2023-04-04T01:20:36;96436.16;;;8.88;100.00
55066;BME280;40964;42.114;24.220;2023-04-04T01:23:05;96435.88;;;8.85;100.00
55066;BME280;40964;42.114;24.220;2023-04-04T01:25:31;96438.19;;;8.81;100.00
55066;BME280;40964;42.114;24.220;2023-04-04T01:27:57;96432.94;;;8.81;100.00
55066;BME280;40964;42.114;24.220;2023-04-04T01:30:26;96433.41;;;8.78;100.00
55066;BME280;40964;42.114;24.220;2023-04-04T01:33:24;96429.34;;;8.70;100.00
55066;BME280;40964;42.114;24.220;2023-04-04T01:38:34;96419.50;;;8.77;100.00
55066;BME280;40964;42.114;24.220;2023-04-04T01:41:09;96415.53;;;8.75;100.00
55066;BME280;40964;42.114;24.220;2023-04-04T01:43:34;96415.53;;;8.75;100.00
55066;BME280;40964;42.114;24.220;2023-04-04T01:46:00;96404.09;;;8.81;100.00
55066;BME280;40964;42.114;24.220;2023-04-04T01:48:26;96394.31;;;8.76;100.00
55066;BME280;40964;42.114;24.220;2023-04-04T01:50:52;96391.69;;;8.76;100.00
55066;BME280;40964;42.114;24.220;2023-04-04T01:53:18;96407.81;;;8.85;100.00
55066;BME280;40964;42.114;24.220;2023-04-04T01:55:44;96381.75;;;8.62;100.00
55066;BME280;40964;42.114;24.220;2023-04-04T01:58:09;96409.00;;;8.94;100.00
55066;BME280;40964;42.114;24.220;2023-04-04T02:00:35;96415.34;;;8.98;100.00
55066;BME280;40964;42.114;24.220;2023-04-04T02:03:01;96404.25;;;9.08;100.00
55066;BME280;40964;42.114;24.220;2023-04-04T02:05:27;96402.41;;;9.08;100.00
55066;BME280;40964;42.114;24.220;2023-04-04T02:07:52;96400.91;;;8.96;100.00
55066;BME280;40964;42.114;24.220;2023-04-04T02:10:18;96402.81;;;9.00;100.00
55066;BME280;40964;42.114;24.220;2023-04-04T02:12:44;96406.16;;;8.96;100.00
55066;BME280;40964;42.114;24.220;2023-04-04T02:15:10;96399.47;;;9.05;100.00
55066;BME280;40964;42.114;24.220;2023-04-04T02:17:36;96396.03;;;9.04;100.00
55066;BME280;40964;42.114;24.220;2023-04-04T02:20:01;96396.00;;;8.99;100.00
55066;BME280;40964;42.114;24.220;2023-04-04T02:22:27;96398.28;;;8.96;100.00
55066;BME280;40964;42.114;24.220;2023-04-04T02:24:53;96398.81;;;8.98;100.00
55066;BME280;40964;42.114;24.220;2023-04-04T02:27:19;96388.78;;;8.90;100.00
55066;BME280;40964;42.114;24.220;2023-04-04T02:29:44;96396.59;;;9.06;100.00
55066;BME280;40964;42.114;24.220;2023-04-04T02:32:09;96384.50;;;9.05;100.00
55066;BME280;40964;42.114;24.220;2023-04-04T02:34:35;96396.97;;;9.15;100.00
55066;BME280;40964;42.114;24.220;2023-04-04T02:37:01;96395.63;;;9.13;100.00
55066;BME280;40964;42.114;24.220;2023-04-04T02:39:28;96397.22;;;9.14;100.00
55066;BME280;40964;42.114;24.220;2023-04-04T02:41:53;96399.31;;;9.12;100.00
55066;BME280;40964;42.114;24.220;2023-04-04T02:44:19;96395.09;;;9.10;100.00
55066;BME280;40964;42.114;24.220;2023-04-04T02:46:44;96397.97;;;9.09;100.00
55066;BME280;40964;42.114;24.220;2023-04-04T02:49:09;96393.97;;;9.06;100.00
55066;BME280;40964;42.114;24.220;2023-04-04T02:51:35;96399.94;;;9.02;100.00
55066;BME280;40964;42.114;24.220;2023-04-04T02:54:00;96401.53;;;9.03;100.00
55066;BME280;40964;42.114;24.220;2023-04-04T02:56:27;96411.72;;;8.99;100.00
55066;BME280;40964;42.114;24.220;2023-04-04T02:58:52;96418.56;;;9.00;100.00
55066;BME280;40964;42.114;24.220;2023-04-04T03:01:18;96425.94;;;9.03;100.00
55066;BME280;40964;42.114;24.220;2023-04-04T03:03:43;96424.09;;;9.04;100.00
55066;BME280;40964;42.114;24.220;2023-04-04T03:06:10;96429.97;;;9.11;100.00
55066;BME280;40964;42.114;24.220;2023-04-04T03:08:39;96424.19;;;9.09;100.00
55066;BME280;40964;42.114;24.220;2023-04-04T03:11:04;96419.09;;;9.02;100.00
55066;BME280;40964;42.114;24.220;2023-04-04T03:13:29;96412.31;;;9.06;100.00
55066;BME280;40964;42.114;24.220;2023-04-04T03:16:03;96404.94;;;9.03;100.00
55066;BME280;40964;42.114;24.220;2023-04-04T03:18:30;96382.31;;;8.97;100.00
55066;BME280;40964;42.114;24.220;2023-04-04T03:20:57;96386.59;;;9.03;100.00
55066;BME280;40964;42.114;24.220;2023-04-04T03:23:23;96386.69;;;9.08;100.00
55066;BME280;40964;42.114;24.220;2023-04-04T03:25:48;96374.22;;;8.99;100.00
55066;BME280;40964;42.114;24.220;2023-04-04T03:28:14;96364.94;;;8.91;100.00
55066;BME280;40964;42.114;24.220;2023-04-04T03:30:39;96361.81;;;8.94;100.00
55066;BME280;40964;42.114;24.220;2023-04-04T03:33:05;96368.81;;;8.89;100.00
55066;BME280;40964;42.114;24.220;2023-04-04T03:35:40;96373.09;;;8.78;100.00
55066;BME280;40964;42.114;24.220;2023-04-04T03:38:06;96385.28;;;8.84;100.00
55066;BME280;40964;42.114;24.220;2023-04-04T03:40:32;96397.44;;;8.90;100.00
55066;BME280;40964;42.114;24.220;2023-04-04T03:42:58;96410.53;;;8.90;100.00
55066;BME280;40964;42.114;24.220;2023-04-04T03:45:23;96415.78;;;8.90;100.00
55066;BME280;40964;42.114;24.220;2023-04-04T03:47:49;96418.00;;;8.81;100.00
55066;BME280;40964;42.114;24.220;2023-04-04T03:50:15;96422.38;;;8.93;100.00
55066;BME280;40964;42.114;24.220;2023-04-04T03:52:41;96413.38;;;8.89;100.00
55066;BME280;40964;42.114;24.220;2023-04-04T03:55:07;96420.13;;;9.01;100.00
55066;BME280;40964;42.114;24.220;2023-04-04T03:57:33;96425.38;;;9.01;100.00
55066;BME280;40964;42.114;24.220;2023-04-04T03:59:58;96419.16;;;9.07;100.00
55066;BME280;40964;42.114;24.220;2023-04-04T04:02:24;96416.00;;;9.05;100.00
55066;BME280;40964;42.114;24.220;2023-04-04T04:04:49;96418.69;;;9.10;100.00
55066;BME280;40964;42.114;24.220;2023-04-04T04:07:15;96420.56;;;9.15;100.00
55066;BME280;40964;42.114;24.220;2023-04-04T04:09:40;96422.81;;;9.06;100.00
55066;BME280;40964;42.114;24.220;2023-04-04T04:12:06;96422.66;;;8.96;100.00
55066;BME280;40964;42.114;24.220;2023-04-04T04:14:32;96430.63;;;9.01;100.00
55066;BME280;40964;42.114;24.220;2023-04-04T04:16:57;96432.50;;;9.06;100.00
55066;BME280;40964;42.114;24.220;2023-04-04T04:19:22;96432.22;;;9.02;100.00
55066;BME280;40964;42.114;24.220;2023-04-04T04:21:48;96432.22;;;9.02;100.00
55066;BME280;40964;42.114;24.220;2023-04-04T04:24:13;96444.84;;;9.05;100.00
55066;BME280;40964;42.114;24.220;2023-04-04T04:26:39;96450.41;;;9.09;100.00
55066;BME280;40964;42.114;24.220;2023-04-04T04:29:04;96459.13;;;9.15;100.00
55066;BME280;40964;42.114;24.220;2023-04-04T04:31:31;96442.75;;;9.07;100.00
55066;BME280;40964;42.114;24.220;2023-04-04T04:33:57;96441.16;;;9.06;100.00
55066;BME280;40964;42.114;24.220;2023-04-04T04:36:22;96440.63;;;9.04;100.00
55066;BME280;40964;42.114;24.220;2023-04-04T04:38:48;96455.97;;;9.13;100.00
55066;BME280;40964;42.114;24.220;2023-04-04T04:41:13;96441.56;;;9.15;100.00
55066;BME280;40964;42.114;24.220;2023-04-04T04:43:38;96449.03;;;9.23;100.00
55066;BME280;40964;42.114;24.220;2023-04-04T04:46:05;96454.13;;;9.30;100.00
55066;BME280;40964;42.114;24.220;2023-04-04T04:48:33;96459.06;;;9.26;100.00
55066;BME280;40964;42.114;24.220;2023-04-04T04:50:58;96451.97;;;9.27;100.00
55066;BME280;40964;42.114;24.220;2023-04-04T04:53:24;96460.69;;;9.32;100.00
55066;BME280;40964;42.114;24.220;2023-04-04T04:55:49;96460.78;;;9.37;100.00
55066;BME280;40964;42.114;24.220;2023-04-04T04:58:17;96456.34;;;9.38;100.00
55066;BME280;40964;42.114;24.220;2023-04-04T05:00:45;96459.59;;;9.45;100.00
55066;BME280;40964;42.114;24.220;2023-04-04T05:03:11;96461.56;;;9.55;100.00
55066;BME280;40964;42.114;24.220;2023-04-04T05:05:36;96458.19;;;9.59;100.00
55066;BME280;40964;42.114;24.220;2023-04-04T05:08:03;96460.88;;;9.64;100.00
55066;BME280;40964;42.114;24.220;2023-04-04T05:10:29;96460.56;;;9.61;100.00
55066;BME280;40964;42.114;24.220;2023-04-04T05:12:55;96454.09;;;9.68;100.00
55066;BME280;40964;42.114;24.220;2023-04-04T05:15:20;96464.69;;;9.74;100.00
55066;BME280;40964;42.114;24.220;2023-04-04T05:17:46;96453.22;;;9.80;100.00
55066;BME280;40964;42.114;24.220;2023-04-04T05:20:12;96448.75;;;9.80;100.00
55066;BME280;40964;42.114;24.220;2023-04-04T05:22:43;96447.63;;;9.76;100.00
55066;BME280;40964;42.114;24.220;2023-04-04T05:25:10;96439.59;;;9.83;100.00
55066;BME280;40964;42.114;24.220;2023-04-04T05:27:36;96442.25;;;9.88;100.00
55066;BME280;40964;42.114;24.220;2023-04-04T05:30:02;96440.41;;;9.88;100.00
55066;BME280;40964;42.114;24.220;2023-04-04T05:32:28;96450.94;;;9.88;100.00
55066;BME280;40964;42.114;24.220;2023-04-04T05:34:53;96445.03;;;9.98;100.00
55066;BME280;40964;42.114;24.220;2023-04-04T05:37:18;96445.84;;;10.04;100.00
55066;BME280;40964;42.114;24.220;2023-04-04T05:39:44;96450.44;;;10.13;100.00
55066;BME280;40964;42.114;24.220;2023-04-04T05:42:09;96447.88;;;10.18;100.00
55066;BME280;40964;42.114;24.220;2023-04-04T05:44:35;96460.84;;;10.25;100.00
55066;BME280;40964;42.114;24.220;2023-04-04T05:47:02;96458.69;;;10.22;100.00
55066;BME280;40964;42.114;24.220;2023-04-04T05:49:27;96456.22;;;10.15;100.00
55066;BME280;40964;42.114;24.220;2023-04-04T05:51:53;96454.53;;;10.04;100.00
55066;BME280;40964;42.114;24.220;2023-04-04T05:54:21;96446.75;;;10.14;100.00
55066;BME280;40964;42.114;24.220;2023-04-04T05:56:46;96450.50;;;10.18;100.00
55066;BME280;40964;42.114;24.220;2023-04-04T05:59:12;96467.13;;;10.24;100.00
55066;BME280;40964;42.114;24.220;2023-04-04T06:01:38;96465.41;;;10.35;100.00
55066;BME280;40964;42.114;24.220;2023-04-04T06:04:04;96473.34;;;10.40;100.00
55066;BME280;40964;42.114;24.220;2023-04-04T06:06:31;96480.78;;;10.48;100.00
55066;BME280;40964;42.114;24.220;2023-04-04T06:08:59;96480.84;;;10.53;100.00
55066;BME280;40964;42.114;24.220;2023-04-04T06:11:24;96491.91;;;10.55;100.00
55066;BME280;40964;42.114;24.220;2023-04-04T06:13:50;96486.69;;;10.60;100.00
55066;BME280;40964;42.114;24.220;2023-04-04T06:16:17;96493.22;;;10.58;100.00
55066;BME280;40964;42.114;24.220;2023-04-04T06:18:43;96479.56;;;10.56;100.00
55066;BME280;40964;42.114;24.220;2023-04-04T06:21:08;96482.28;;;10.66;100.00
55066;BME280;40964;42.114;24.220;2023-04-04T06:23:34;96484.19;;;10.75;100.00
55066;BME280;40964;42.114;24.220;2023-04-04T06:26:02;96495.38;;;10.88;100.00
55066;BME280;40964;42.114;24.220;2023-04-04T06:28:27;96493.88;;;10.97;100.00
55066;BME280;40964;42.114;24.220;2023-04-04T06:30:53;96495.53;;;11.08;100.00
55066;BME280;40964;42.114;24.220;2023-04-04T06:33:18;96501.94;;;11.17;100.00
55066;BME280;40964;42.114;24.220;2023-04-04T06:35:43;96498.25;;;11.18;100.00
55066;BME280;40964;42.114;24.220;2023-04-04T06:38:09;96498.53;;;11.22;100.00
55066;BME280;40964;42.114;24.220;2023-04-04T06:40:35;96505.38;;;11.23;100.00
55066;BME280;40964;42.114;24.220;2023-04-04T06:43:00;96496.78;;;11.32;99.02
55066;BME280;40964;42.114;24.220;2023-04-04T06:45:26;96492.59;;;11.36;98.68
55066;BME280;40964;42.114;24.220;2023-04-04T06:47:55;96491.06;;;11.46;98.18
55066;BME280;40964;42.114;24.220;2023-04-04T06:50:21;96492.72;;;11.57;96.27
55066;BME280;40964;42.114;24.220;2023-04-04T06:52:47;96489.09;;;11.68;93.33
55066;BME280;40964;42.114;24.220;2023-04-04T06:55:13;96489.72;;;11.80;91.65
55066;BME280;40964;42.114;24.220;2023-04-04T06:57:39;96493.88;;;11.76;88.85
55066;BME280;40964;42.114;24.220;2023-04-04T07:00:05;96489.59;;;11.65;87.76
55066;BME280;40964;42.114;24.220;2023-04-04T07:02:30;96498.91;;;11.78;87.82
55066;BME280;40964;42.114;24.220;2023-04-04T07:04:56;96493.16;;;11.86;84.93
55066;BME280;40964;42.114;24.220;2023-04-04T07:07:21;96492.97;;;12.03;86.33
55066;BME280;40964;42.114;24.220;2023-04-04T07:09:47;96492.81;;;12.25;86.75
55066;BME280;40964;42.114;24.220;2023-04-04T07:12:12;96497.28;;;12.29;83.39
55066;BME280;40964;42.114;24.220;2023-04-04T07:14:37;96499.47;;;12.42;82.49
55066;BME280;40964;42.114;24.220;2023-04-04T07:17:03;96496.72;;;12.17;85.82
55066;BME280;40964;42.114;24.220;2023-04-04T07:19:28;96503.59;;;12.18;88.32
55066;BME280;40964;42.114;24.220;2023-04-04T07:21:54;96505.25;;;11.82;95.92
55066;BME280;40964;42.114;24.220;2023-04-04T07:24:20;96505.19;;;11.77;100.00
55066;BME280;40964;42.114;24.220;2023-04-04T07:26:46;96505.84;;;11.52;100.00
55066;BME280;40964;42.114;24.220;2023-04-04T07:29:11;96501.59;;;11.46;100.00
55066;BME280;40964;42.114;24.220;2023-04-04T07:31:37;96510.97;;;11.31;100.00
55066;BME280;40964;42.114;24.220;2023-04-04T07:34:03;96513.06;;;11.29;100.00
55066;BME280;40964;42.114;24.220;2023-04-04T07:36:28;96505.69;;;11.31;100.00
55066;BME280;40964;42.114;24.220;2023-04-04T07:38:54;96504.22;;;11.08;100.00
55066;BME280;40964;42.114;24.220;2023-04-04T07:41:20;96510.13;;;10.94;100.00
55066;BME280;40964;42.114;24.220;2023-04-04T07:43:47;96515.38;;;10.89;100.00
55066;BME280;40964;42.114;24.220;2023-04-04T07:46:12;96515.47;;;11.04;100.00
55066;BME280;40964;42.114;24.220;2023-04-04T07:48:38;96521.31;;;11.06;100.00
55066;BME280;40964;42.114;24.220;2023-04-04T07:51:04;96523.19;;;11.11;100.00
55066;BME280;40964;42.114;24.220;2023-04-04T07:53:30;96523.16;;;11.05;100.00
55066;BME280;40964;42.114;24.220;2023-04-04T07:55:56;96524.41;;;10.98;100.00
55066;BME280;40964;42.114;24.220;2023-04-04T07:58:22;96526.78;;;10.99;100.00
55066;BME280;40964;42.114;24.220;2023-04-04T08:00:47;96521.25;;;11.01;100.00
55066;BME280;40964;42.114;24.220;2023-04-04T08:03:13;96514.50;;;11.10;100.00
55066;BME280;40964;42.114;24.220;2023-04-04T08:05:40;96522.09;;;11.06;100.00
55066;BME280;40964;42.114;24.220;2023-04-04T08:08:05;96520.81;;;11.14;100.00
55066;BME280;40964;42.114;24.220;2023-04-04T08:10:31;96522.03;;;11.01;100.00
55066;BME280;40964;42.114;24.220;2023-04-04T08:12:57;96521.19;;;10.96;100.00
55066;BME280;40964;42.114;24.220;2023-04-04T08:15:22;96519.63;;;10.95;100.00
55066;BME280;40964;42.114;24.220;2023-04-04T08:17:47;96520.97;;;10.97;100.00
55066;BME280;40964;42.114;24.220;2023-04-04T08:20:14;96521.50;;;10.99;100.00
55066;BME280;40964;42.114;24.220;2023-04-04T08:22:41;96522.25;;;10.95;100.00
55066;BME280;40964;42.114;24.220;2023-04-04T08:25:07;96525.47;;;11.02;100.00
55066;BME280;40964;42.114;24.220;2023-04-04T08:27:33;96531.06;;;11.11;100.00
55066;BME280;40964;42.114;24.220;2023-04-04T08:29:59;96527.06;;;11.03;100.00
55066;BME280;40964;42.114;24.220;2023-04-04T08:32:24;96524.34;;;10.93;100.00
55066;BME280;40964;42.114;24.220;2023-04-04T08:34:50;96533.97;;;11.09;100.00
55066;BME280;40964;42.114;24.220;2023-04-04T08:37:16;96522.91;;;11.12;100.00
55066;BME280;40964;42.114;24.220;2023-04-04T08:39:41;96538.31;;;11.25;100.00
55066;BME280;40964;42.114;24.220;2023-04-04T08:42:08;96527.25;;;11.23;100.00
55066;BME280;40964;42.114;24.220;2023-04-04T08:44:35;96532.59;;;11.38;100.00
55066;BME280;40964;42.114;24.220;2023-04-04T08:47:04;96528.47;;;11.48;100.00
55066;BME280;40964;42.114;24.220;2023-04-04T08:49:37;96525.16;;;11.62;100.00
55066;BME280;40964;42.114;24.220;2023-04-04T08:52:03;96520.84;;;11.93;100.00
55066;BME280;40964;42.114;24.220;2023-04-04T08:54:30;96527.53;;;12.06;100.00
55066;BME280;40964;42.114;24.220;2023-04-04T08:56:58;96528.09;;;12.18;100.00
55066;BME280;40964;42.114;24.220;2023-04-04T09:00:05;96529.47;;;12.36;100.00
55066;BME280;40964;42.114;24.220;2023-04-04T09:03:09;96519.50;;;12.48;99.46
55066;BME280;40964;42.114;24.220;2023-04-04T09:05:46;96526.09;;;12.46;100.00
55066;BME280;40964;42.114;24.220;2023-04-04T09:08:20;96528.53;;;12.68;99.07
55066;BME280;40964;42.114;24.220;2023-04-04T09:10:48;96533.75;;;12.58;97.79
55066;BME280;40964;42.114;24.220;2023-04-04T09:13:20;96529.56;;;12.67;95.31
55066;BME280;40964;42.114;24.220;2023-04-04T09:16:12;96534.09;;;12.92;94.28
55066;BME280;40964;42.114;24.220;2023-04-04T09:19:48;96529.38;;;13.04;94.16
55066;BME280;40964;42.114;24.220;2023-04-04T09:22:55;96529.38;;;12.99;90.83
55066;BME280;40964;42.114;24.220;2023-04-04T09:26:08;96527.00;;;13.18;86.50
55066;BME280;40964;42.114;24.220;2023-04-04T09:28:38;96532.03;;;13.70;87.50
55066;BME280;40964;42.114;24.220;2023-04-04T09:31:06;96534.97;;;13.48;87.23
55066;BME280;40964;42.114;24.220;2023-04-04T09:33:34;96539.41;;;13.63;86.31
55066;BME280;40964;42.114;24.220;2023-04-04T09:36:06;96539.69;;;13.61;85.28
55066;BME280;40964;42.114;24.220;2023-04-04T09:38:35;96546.00;;;13.81;79.77
55066;BME280;40964;42.114;24.220;2023-04-04T09:41:01;96543.63;;;13.79;82.89
55066;BME280;40964;42.114;24.220;2023-04-04T09:43:26;96545.88;;;14.27;84.05
55066;BME280;40964;42.114;24.220;2023-04-04T09:45:55;96538.38;;;14.54;82.22
55066;BME280;40964;42.114;24.220;2023-04-04T09:48:29;96544.13;;;14.71;81.20
55066;BME280;40964;42.114;24.220;2023-04-04T09:50:56;96538.59;;;15.07;75.76
55066;BME280;40964;42.114;24.220;2023-04-04T09:53:23;96543.03;;;15.17;76.04
55066;BME280;40964;42.114;24.220;2023-04-04T09:55:51;96540.47;;;15.41;81.34
55066;BME280;40964;42.114;24.220;2023-04-04T09:58:19;96542.34;;;15.35;79.45
55066;BME280;40964;42.114;24.220;2023-04-04T10:00:48;96546.34;;;14.98;77.66
55066;BME280;40964;42.114;24.220;2023-04-04T10:03:14;96541.69;;;14.80;79.26
55066;BME280;40964;42.114;24.220;2023-04-04T10:05:40;96545.63;;;14.83;82.71
55066;BME280;40964;42.114;24.220;2023-04-04T10:08:20;96547.59;;;14.62;85.37
55066;BME280;40964;42.114;24.220;2023-04-04T10:10:59;96545.88;;;14.32;84.92
55066;BME280;40964;42.114;24.220;2023-04-04T10:13:31;96547.00;;;14.05;84.85
55066;BME280;40964;42.114;24.220;2023-04-04T10:15:58;96543.84;;;13.98;86.42
55066;BME280;40964;42.114;24.220;2023-04-04T10:18:25;96521.75;;;13.58;87.00
55066;BME280;40964;42.114;24.220;2023-04-04T10:20:55;96544.47;;;13.59;87.05
55066;BME280;40964;42.114;24.220;2023-04-04T10:23:22;96545.78;;;13.47;89.31
55066;BME280;40964;42.114;24.220;2023-04-04T10:25:49;96553.44;;;13.58;87.23
55066;BME280;40964;42.114;24.220;2023-04-04T10:28:18;96558.19;;;13.41;87.74
55066;BME280;40964;42.114;24.220;2023-04-04T10:30:51;96560.84;;;13.31;87.85
55066;BME280;40964;42.114;24.220;2023-04-04T10:36:13;96546.72;;;12.64;92.51
55066;BME280;40964;42.114;24.220;2023-04-04T10:38:48;96546.44;;;12.66;93.06
55066;BME280;40964;42.114;24.220;2023-04-04T10:41:17;96550.72;;;12.82;92.72
55066;BME280;40964;42.114;24.220;2023-04-04T10:43:44;96548.34;;;12.81;91.79
55066;BME280;40964;42.114;24.220;2023-04-04T10:46:17;96547.81;;;12.94;91.22
55066;BME280;40964;42.114;24.220;2023-04-04T10:48:45;96548.66;;;13.15;90.15
55066;BME280;40964;42.114;24.220;2023-04-04T10:51:12;96552.06;;;13.10;90.12
55066;BME280;40964;42.114;24.220;2023-04-04T10:53:39;96546.81;;;13.15;93.43
55066;BME280;40964;42.114;24.220;2023-04-04T10:56:05;96551.53;;;13.08;93.82
55066;BME280;40964;42.114;24.220;2023-04-04T10:58:38;96548.91;;;13.18;94.47
55066;BME280;40964;42.114;24.220;2023-04-04T11:01:06;96547.88;;;13.19;95.91
55066;BME280;40964;42.114;24.220;2023-04-04T11:03:32;96547.31;;;13.07;96.54
55066;BME280;40964;42.114;24.220;2023-04-04T11:05:58;96555.50;;;13.05;95.77
55066;BME280;40964;42.114;24.220;2023-04-04T11:08:27;96547.84;;;13.09;97.99
55066;BME280;40964;42.114;24.220;2023-04-04T11:10:54;96546.81;;;13.05;97.56
55066;BME280;40964;42.114;24.220;2023-04-04T11:16:26;96555.50;;;12.85;98.58
55066;BME280;40964;42.114;24.220;2023-04-04T11:18:45;96563.34;;;12.70;100.00
55066;BME280;40964;42.114;24.220;2023-04-04T11:21:19;96551.97;;;12.64;100.00
55066;BME280;40964;42.114;24.220;2023-04-04T11:26:34;96562.00;;;12.62;100.00
55066;BME280;40964;42.114;24.220;2023-04-04T11:29:03;96575.63;;;12.34;100.00
55066;BME280;40964;42.114;24.220;2023-04-04T11:31:33;96572.09;;;11.38;91.99
55066;BME280;40964;42.114;24.220;2023-04-04T11:34:12;96578.03;;;10.70;99.55
55066;BME280;40964;42.114;24.220;2023-04-04T11:39:10;96585.94;;;10.09;100.00
55066;BME280;40964;42.114;24.220;2023-04-04T11:42:04;96585.19;;;9.92;100.00
55066;BME280;40964;42.114;24.220;2023-04-04T11:47:22;96593.56;;;9.89;100.00
55066;BME280;40964;42.114;24.220;2023-04-04T11:49:48;96575.50;;;9.76;100.00
55066;BME280;40964;42.114;24.220;2023-04-04T11:52:16;96589.41;;;9.93;100.00
55066;BME280;40964;42.114;24.220;2023-04-04T11:54:46;96578.19;;;9.98;100.00
55066;BME280;40964;42.114;24.220;2023-04-04T11:57:15;96572.69;;;9.99;100.00
55066;BME280;40964;42.114;24.220;2023-04-04T11:59:45;96587.53;;;10.10;100.00
55066;BME280;40964;42.114;24.220;2023-04-04T12:02:13;96590.78;;;10.17;100.00
55066;BME280;40964;42.114;24.220;2023-04-04T12:04:40;96587.44;;;10.22;100.00
55066;BME280;40964;42.114;24.220;2023-04-04T12:07:08;96575.19;;;10.11;100.00
55066;BME280;40964;42.114;24.220;2023-04-04T12:09:34;96583.44;;;10.36;100.00
55066;BME280;40964;42.114;24.220;2023-04-04T12:12:00;96585.50;;;10.34;100.00
55066;BME280;40964;42.114;24.220;2023-04-04T12:14:26;96592.91;;;10.20;97.45
55066;BME280;40964;42.114;24.220;2023-04-04T12:16:53;96589.47;;;10.37;100.00
55066;BME280;40964;42.114;24.220;2023-04-04T12:19:19;96593.44;;;10.39;94.86
55066;BME280;40964;42.114;24.220;2023-04-04T12:21:48;96589.09;;;10.28;90.62
55066;BME280;40964;42.114;24.220;2023-04-04T12:24:14;96581.88;;;10.18;95.46
55066;BME280;40964;42.114;24.220;2023-04-04T12:26:45;96577.94;;;9.99;93.71
55066;BME280;40964;42.114;24.220;2023-04-04T12:29:12;96589.47;;;9.98;94.95
55066;BME280;40964;42.114;24.220;2023-04-04T12:31:41;96581.44;;;9.88;95.51
55066;BME280;40964;42.114;24.220;2023-04-04T12:34:17;96575.09;;;9.84;94.21
55066;BME280;40964;42.114;24.220;2023-04-04T12:36:48;96573.00;;;9.86;95.52
55066;BME280;40964;42.114;24.220;2023-04-04T12:39:15;96579.25;;;9.80;93.52
55066;BME280;40964;42.114;24.220;2023-04-04T12:42:01;96574.53;;;9.82;93.36
55066;BME280;40964;42.114;24.220;2023-04-04T12:44:35;96573.25;;;9.84;91.44
55066;BME280;40964;42.114;24.220;2023-04-04T12:47:12;96582.84;;;9.95;95.64
55066;BME280;40964;42.114;24.220;2023-04-04T12:49:43;96575.06;;;10.01;94.39
55066;BME280;40964;42.114;24.220;2023-04-04T12:52:28;96595.69;;;9.92;89.93
55066;BME280;40964;42.114;24.220;2023-04-04T12:54:58;96588.94;;;9.79;92.15
55066;BME280;40964;42.114;24.220;2023-04-04T12:57:25;96587.03;;;9.75;93.79
55066;BME280;40964;42.114;24.220;2023-04-04T12:59:53;96597.38;;;9.64;90.57
55066;BME280;40964;42.114;24.220;2023-04-04T13:02:21;96594.47;;;9.44;92.08
55066;BME280;40964;42.114;24.220;2023-04-04T13:04:51;96591.25;;;9.59;92.96
55066;BME280;40964;42.114;24.220;2023-04-04T13:07:30;96602.72;;;9.53;91.16
55066;BME280;40964;42.114;24.220;2023-04-04T13:10:03;96600.16;;;9.41;88.93